East Davis: Past 24 Hour Conditions

 

Iqaluit Airport

12:00 AM EDT 26 October 2014
This table is a summary of hourly weather conditions for the past 24 hours.
Date / Time
(EDT)
Wind(knots) Conditions Visibility(km) Pressure(kPa) Air tempC) Relative humidity(%) Dew pointC) Wind Chill
26 October 2014
0:00 NE 7 Clear 24 101.9 -14 57 -20 -21
25 October 2014
23:00 NE 5 Clear 24 101.9 -14 58 -21 -19
22:00 NE 4 Clear 24 101.9 -14 54 -21 -19
21:00 NNE 4 Clear 24 101.9 -14 59 -21 -20
20:00 NE 3 Clear 24 101.9 -13 54 -21 -17
19:00 N 1 Clear 24 101.9 -14 57 -21 -16
18:00 E 2 Mainly Clear 24 101.9 -14 57 -21 -17
17:00 N 1 Mainly Clear 32 101.9 -14 57 -21 -15
16:00 N 3 Mainly Sunny 48 101.8 -13 56 -20 -16
15:00 calm Partly Cloudy 48 101.8 -13 59 -19 *
14:00 NW 8 Partly Cloudy 48 101.8 -14 65 -19 -22
13:00 NNE 5 Partly Cloudy 48 101.9 -13 57 -19 -17
12:00 N 4 Mostly Cloudy 48 101.9 -13 59 -19 -17
11:00 NNW 7 Mostly Cloudy 48 101.9 -13 64 -19 -20
10:00 NW 10 Mostly Cloudy 48 102.0 -15 71 -20 -24
9:00 NW 8 Mostly Cloudy 48 102.0 -15 71 -20 -23
8:00 N 11 Partly Cloudy 40 102.0 -16 71 -20 -25
7:00 N 6 Mainly Clear 24 102.1 -16 71 -20 -23
6:00 NW 11 Clear 24 102.1 -17 74 -20 -27
5:00 NNW 8 Clear 24 102.2 -17 73 -20 -25
4:00 NW 8 Clear 24 102.2 -16 71 -20 -24
3:00 NW 9 Clear 24 102.2 -17 73 -20 -25
2:00 NW 9 Clear 24 102.3 -16 72 -20 -24
1:00 NW 8 Clear 24 102.2 -15 72 -19 -23
0:00 NNW 6 Mainly Clear 24 102.3 -16 74 -19 -22
 
Map of Arctic - Eastern Arctic marine weather areas Baker Lake Airport Chesterfield Inlet Airport Coral Harbour Airport Gjoa Haven Airport Kugaaruk Airport Rankin Inlet Airport Shepherd Bay Airport Whale Cove Airport Arctic Bay Brevoort Island Qikiqtarjuaq Airport Cape Dorset Airport Cape Dyer Cape Hooper Clyde Airport Grise Fiord Airport Hall Beach Airport Igloolik Airport Iqaluit Airport Longstaff Bluff Pangnirtung Airport Pond Inlet Airport Repulse Bay Airport Resolute Airport Resolution Island Rowley Island Airport Taloyoak Airport Wager Bay Akulivik Airport Ivujivik Airport Puvirnituq Airport Kangiqsujuaq Airport Kangirsuk Airport Quaqtaq Airport Tasiujaq Airport Cape Kakkiviak Cape Kiglapait Nain Airport Saglek Cape Mercy Kimmirut Airport Aupaluk Airport Salluit Airport Kangiqsualujjuaq Airport Fort Ross
Legend: buoyBuoy land stationLand Station